Aérodrome :
LOGIN :

S'inscrire | Disclaimer

   EN    FR    IT 

 










Légende :    VFR   VFR Marginal   IFR   IFR Intensif   IFR Très Intensif
Visi : 
Plafond : 
>= 8 km
>= 3000ft
5 à 8 km
1000 à 3000 ft
1500m à 5 km
500 à 1000 ft
800 à 1500m
200 à 500 ft
< 800m
< 200 ft
Symboles :   Orages  Brouillard  Fortes neiges  Fortes précipitations  Vent > 20 kt
SIGMETs :   Divers  Orages  Givrage  Turbulence  Onde Orograph.  Cendres Volcan.






- Altitude de l'aérodrome : 124 ft
- Code IATA : RNS


LFRN - Rennes

DERNIER METAR :
  • 032000Z AUTO 30007KT 260V340 9999 ///CB 15/13 Q1003 TEMPO VRB15G25KT 4000 SHRA

METARs EXPIRÉS :
  • 031930Z AUTO 30009KT 9000 -RA VCTS ///CB 15/13 Q1003 TEMPO 4000 SHRA BECMG 36010KT
  • 031900Z AUTO 28012KT 4600 -RA BR ///CB 15/13 Q1003 TEMPO VRB15G25KT TSRAGR
  • 031830Z AUTO 27012KT 8000 -RA ///CB 15/13 Q1003 TEMPO VRB15G25KT 3000 TSRAGR
  • 031800Z AUTO 26007KT 9999 -RA ///CB 15/13 Q1003 TEMPO VRB15G25KT 3000 TSRAGR
  • 031730Z AUTO 30007KT 9999 RA ///CB 17/12 Q1003 TEMPO VRB15G25KT 3000 TSRAGR

TAF TAF LFRN
Valide du 03 à 18h jusqu'au 04 à 18h UTC


031700Z 0318/0418 36010KT 9999 BKN030
TEMPO 0318/0402 4000 SHRA BKN030CB
PROB40
TEMPO 0318/0321 VRB15G25KT 3000 TSRAGR
TEMPO 0402/0409 5000 SHRA BKN015TCU
TEMPO 0406/0409 BKN010
PROB30
TEMPO 0414/0418 33015G25KT
ATIS : +33 2 99 67 72 50



MET'MAP, la Météo Aéronautique d'un coup d'oeil ! - Copyright ORBIFLY Décembre 2007 - Disclaimer

ORBIFLY MET'MAP TEAM :

Programmation & Développement : Alexandra Zaïnal
Sur une idée originale de : Baudouin d'Aumeries
Assistance à la programmation : Marc-Olivier Méhu
Soutien technique & logistique : Manuel Goepfert

Contact : metmap@orbifly.com




SOURCES & CREDITS :

   NOAA